M I D A S
Marine Information and Data Acquisition System
Tripno 2280 of the Zeeleeuw from 2012-03-26 06:45:06 to 2012-03-26 15:07:12
Back to CruiseResearch ActivitiesStationsMapUnderway DataData graphs

EquipmentUnitsComment
TimeDGPSUTC
LatitudeDGPSDM.mWGS84
LongitudeDGPSDM.mWGS84
TemperatureSBE03/SBE38deg celciusITS90
ConductivitySBE21S/mITS90
SalinitySBE21 Practical Salinity Units
ChlorophylAChelsea fluorimeterg/lCalibrated in Aceton
Missing or incorrect values are displayed as -999
Sea surface data collected by the RV Zeeleeuw from 2012-03-26 06:21:21 to 2012-03-26 15:28:32
Time Latitude Longitude Temperature Conductivity Salinity ChlorophylA
2012-03-26 06:22:26 51°13.638 2°56.021 14.4002 0.036438 0.18709 -2.458615
2012-03-26 06:23:26 51°13.638 2°56.021 14.4025 0.036336 0.186564 -2.458615
2012-03-26 06:24:26 51°13.636 2°56.02 14.4048 0.036336 0.186576 -2.458615
2012-03-26 06:25:26 51°13.636 2°56.02 14.4063 0.036336 0.186585 -2.458615
2012-03-26 06:26:26 51°13.636 2°56.02 14.4075 0.036336 0.186596 -2.458615
2012-03-26 06:27:26 51°13.636 2°56.02 14.4103 0.036233 0.186073 -2.458615
2012-03-26 06:28:26 51°13.636 2°56.02 14.4136 0.03613 0.185552 -2.458615
2012-03-26 06:29:26 51°13.636 2°56.02 14.4163 0.03613 0.185564 -2.458615
2012-03-26 06:30:26 51°13.635 2°56.02 14.4181 0.036027 0.185046 -2.458615
2012-03-26 06:31:26 51°13.636 2°56.019 14.4203 0.035924 0.184526 -2.458615
2012-03-26 06:32:26 51°13.636 2°56.019 14.4226 0.041579 0.213978 -2.458615
2012-03-26 06:33:26 51°13.636 2°56.019 14.4238 0.041682 0.214528 -2.458615
2012-03-26 06:34:26 51°13.636 2°56.019 14.4275 0.041785 0.215079 -2.458615
2012-03-26 06:35:26 51°13.635 2°56.019 14.4303 0.041785 0.215106 -2.458615
2012-03-26 06:36:26 51°13.635 2°56.019 14.4336 0.042093 0.216738 -2.458615
2012-03-26 06:37:26 51°13.633 2°56.021 14.4376 0.042093 0.216763 -2.458615
2012-03-26 06:38:26 51°13.635 2°56.019 14.4407 0.041785 0.215172 -2.458615
2012-03-26 06:39:26 51°13.634 2°56.02 14.4468 0.041579 0.214122 -2.458615
2012-03-26 06:40:26 51°13.633 2°56.019 14.4508 0.041785 0.215217 -2.458615
2012-03-26 06:41:26 51°13.64 2°55.981 14.4569 0.043018 0.221705 -2.458615
2012-03-26 06:42:26 51°13.67 2°55.874 14.462 0.042401 0.218491 -2.458615
2012-03-26 06:43:26 51°13.725 2°55.764 14.4658 0.042813 0.220678 -2.458615
2012-03-26 06:44:26 51°13.789 2°55.67 14.4697 0.042504 0.219088 -2.458615
2012-03-26 06:45:26 51°13.868 2°55.619 14.476 0.041476 0.213732 -2.458615
2012-03-26 06:46:26 51°13.936 2°55.623 14.4743 0.039728 0.204621 -2.458615
2012-03-26 06:47:26 51°13.968 2°55.648 14.4866 0.0387 0.199288 -2.458615
2012-03-26 06:48:26 51°13.978 2°55.609 14.5008 0.037672 0.193956 -2.458615
2012-03-26 06:49:25 51°14.052 2°55.508 14.5037 0.038495 0.198274 -2.458615
2012-03-26 06:50:26 51°14.185 2°55.375 14.5166 0.040448 0.208503 -2.458615
2012-03-26 06:51:26 51°14.329 2°55.227 14.5237 0.043224 0.223065 -2.458615
2012-03-26 06:52:26 51°14.489 2°55.077 14.5255 0.043121 0.222558 -2.458615
2012-03-26 06:53:23 51°14.644 2°54.88 12.6733 0.05659 0.293733 -2.458615
2012-03-26 06:54:22 51°14.799 2°54.651 8.3982 3.52862 31.19119 -2.458615
2012-03-26 06:55:23 51°14.971 2°54.448 8.1396 3.210274 29.928112 -2.458615
2012-03-26 06:56:22 51°15.137 2°54.253 8.0556 3.177686 29.868373 -2.458615
2012-03-26 06:57:22 51°15.309 2°54.06 7.9427 3.171997 29.921809 -2.458615
2012-03-26 06:58:22 51°15.483 2°53.871 7.8989 3.180481 30.061291 -2.458615
2012-03-26 06:59:23 51°15.66 2°53.677 7.9052 3.177274 30.089031 -2.458615
2012-03-26 07:00:22 51°15.832 2°53.487 7.8347 3.171274 30.062349 -2.458615
2012-03-26 07:01:22 51°16.017 2°53.319 7.8213 3.166826 30.059015 -2.458615
2012-03-26 07:02:22 51°16.199 2°53.145 7.7448 3.169827 30.12373 -2.458615
2012-03-26 07:03:22 51°16.377 2°52.956 7.6753 3.164551 30.140336 -2.458615
2012-03-26 07:04:22 51°16.567 2°52.803 7.6174 3.169414 30.23061 -2.458615
2012-03-26 07:05:22 51°16.756 2°52.662 7.583 3.183796 30.437854 -2.458615
2012-03-26 07:06:22 51°16.956 2°52.628 7.5378 3.189694 30.545488 -2.458615
2012-03-26 07:07:22 51°17.158 2°52.615 7.5076 3.197247 30.662912 -2.458615
2012-03-26 07:08:22 51°17.357 2°52.618 7.4764 3.206042 30.797133 -2.458615
2012-03-26 07:09:23 51°17.559 2°52.606 7.4564 3.213699 30.898266 -2.458615
2012-03-26 07:10:22 51°17.748 2°52.658 7.4499 3.214217 30.908703 -2.458615
2012-03-26 07:11:22 51°17.939 2°52.714 7.4391 3.208216 30.866153 -2.458615
2012-03-26 07:12:22 51°18.125 2°52.791 7.4525 3.198697 30.766423 -2.458615
2012-03-26 07:13:22 51°18.253 2°53.006 7.4574 3.19073 30.672639 -2.458615
2012-03-26 07:14:22 51°18.373 2°53.235 7.4728 3.180797 30.567795 -2.458615
2012-03-26 07:15:22 51°18.477 2°53.481 7.4629 3.177073 30.521691 -2.458615
2012-03-26 07:16:22 51°18.586 2°53.725 7.4751 3.172624 30.47602 -2.458615
2012-03-26 07:17:22 51°18.683 2°53.982 7.4654 3.170865 30.453277 -2.458615
2012-03-26 07:18:22 51°18.785 2°54.231 7.4759 3.168382 30.430126 -2.458615
2012-03-26 07:19:22 51°18.862 2°54.502 7.467 3.166416 30.406003 -2.458615
2012-03-26 07:20:22 51°18.964 2°54.752 7.4703 3.163416 30.37978 -2.458615
2012-03-26 07:21:22 51°19.043 2°55.021 7.4627 3.16114 30.352368 -2.458615
2012-03-26 07:22:22 51°19.143 2°55.271 7.4646 3.156174 30.307677 -2.458615
2012-03-26 07:23:22 51°19.23 2°55.532 7.4698 3.152139 30.259987 -2.458615
2012-03-26 07:24:22 51°19.319 2°55.791 7.4703 3.14707 30.206157 -2.458615
2012-03-26 07:25:22 51°19.403 2°56.055 7.4692 3.145932 30.190864 -2.458615
2012-03-26 07:26:22 51°19.494 2°56.315 7.4568 3.142621 30.164543 -2.458615
2012-03-26 07:27:23 51°19.592 2°56.576 7.4692 3.139414 30.131297 -2.458615
2012-03-26 07:28:22 51°19.673 2°56.841 7.4708 3.13569 30.084562 -2.458615
2012-03-26 07:29:22 51°19.773 2°57.093 7.4724 3.132069 30.046941 -2.458615
2012-03-26 07:30:22 51°19.878 2°57.338 7.4683 3.128758 30.009426 -2.458615
2012-03-26 07:31:22 51°19.959 2°57.604 7.4666 3.12462 29.967926 -2.458615
2012-03-26 07:32:22 51°20.045 2°57.868 7.4557 3.122034 29.946069 -2.458615
2012-03-26 07:33:22 51°20.141 2°58.123 7.4601 3.120586 29.937077 -2.458615
2012-03-26 07:34:22 51°20.234 2°58.38 7.4497 3.118207 29.913428 -2.458615
2012-03-26 07:35:22 51°20.319 2°58.643 7.4287 3.116345 29.901629 -2.458615
2012-03-26 07:36:22 51°20.381 2°58.919 7.4168 3.113448 29.886008 -2.458615
2012-03-26 07:37:22 51°20.442 2°59.193 7.4093 3.111586 29.87738 -2.458615
2012-03-26 07:38:22 51°20.51 2°59.462 7.4022 3.11138 29.879959 -2.458615
2012-03-26 07:39:22 51°20.594 2°59.717 7.3985 3.111276 29.888414 -2.458615
2012-03-26 07:40:23 51°20.671 2°59.983 7.3889 3.111897 29.900585 -2.458615
2012-03-26 07:41:22 51°20.736 3°0.243 7.3856 3.112104 29.902783 -2.458615
2012-03-26 07:42:22 51°20.768 3°0.522 7.3746 3.112207 29.914247 -2.458615
2012-03-26 07:43:22 51°20.832 3°0.787 7.3828 3.11138 29.910236 -2.458615
2012-03-26 07:44:23 51°20.869 3°1.065 7.3869 3.113138 29.919356 -2.458615
2012-03-26 07:45:24 51°20.896 3°1.344 7.3979 3.115104 29.93785 -2.458615
2012-03-26 07:46:22 51°20.929 3°1.606 7.4036 3.115 29.931166 -2.458615
2012-03-26 07:47:23 51°20.978 3°1.879 7.4058 3.115 29.928773 -2.458615
2012-03-26 07:48:22 51°21.04 3°2.139 7.4043 3.115104 29.92748 -2.458615
2012-03-26 07:49:23 51°21.089 3°2.418 7.4049 3.115311 29.92888 -2.458615
2012-03-26 07:50:22 51°21.116 3°2.697 7.4008 3.115207 29.928578 -2.458615
2012-03-26 07:51:23 51°21.157 3°2.979 7.4033 3.115207 29.930174 -2.458615
2012-03-26 07:52:22 51°21.209 3°3.243 7.4063 3.115104 29.926682 -2.458615
2012-03-26 07:53:22 51°21.277 3°3.505 7.3985 3.115414 29.927587 -2.458615
2012-03-26 07:54:22 51°21.324 3°3.775 7.397 3.115311 29.932868 -2.458615
2012-03-26 07:55:23 51°21.378 3°4.046 7.3859 3.115518 29.943046 -2.458615
2012-03-26 07:56:23 51°21.42 3°4.317 7.3842 3.115621 29.945742 -2.458615
2012-03-26 07:57:22 51°21.469 3°4.576 7.3865 3.113552 29.927743 -2.458615
2012-03-26 07:58:22 51°21.531 3°4.835 7.379 3.110345 29.89127 -2.458615
2012-03-26 07:59:23 51°21.585 3°5.103 7.381 3.110035 29.888769 -2.458615
2012-03-26 08:00:22 51°21.63 3°5.364 7.3783 3.10838 29.87596 -2.458615
2012-03-26 08:01:22 51°21.685 3°5.622 7.3828 3.109001 29.883353 -2.458615
2012-03-26 08:02:22 51°21.719 3°5.888 7.3909 3.108276 29.867693 -2.458615
2012-03-26 08:03:22 51°21.759 3°6.149 7.3956 3.109931 29.884482 -2.458615
2012-03-26 08:04:22 51°21.796 3°6.412 7.3852 3.112518 29.903194 -2.458615
2012-03-26 08:05:23 51°21.819 3°6.684 7.3708 3.113656 29.926448 -2.458615
2012-03-26 08:06:22 51°21.871 3°6.938 7.3826 3.110863 29.902346 -2.458615
2012-03-26 08:07:22 51°21.893 3°7.21 7.3749 3.109414 29.883767 -2.458615
2012-03-26 08:08:22 51°21.92 3°7.484 7.3582 3.110449 29.906721 -2.458615
2012-03-26 08:09:22 51°21.971 3°7.75 7.3554 3.116656 29.981515 -2.458615
2012-03-26 08:10:22 51°22.02 3°8.017 7.3644 3.118415 30.002625 -2.458615
2012-03-26 08:11:22 51°22.04 3°8.295 7.3625 3.118311 29.997522 -2.458615
2012-03-26 08:12:23 51°22.065 3°8.578 7.3611 3.119346 30.008527 -2.458615
2012-03-26 08:13:22 51°22.108 3°8.844 7.3542 3.121828 30.036544 -2.458615
2012-03-26 08:14:22 51°22.135 3°9.119 7.3456 3.125035 30.073879 -2.458615
2012-03-26 08:15:22 51°22.134 3°9.393 7.3404 3.128449 30.114234 -2.458615
2012-03-26 08:16:22 51°22.111 3°9.669 7.3423 3.129381 30.134603 -2.458615
2012-03-26 08:17:22 51°22.103 3°9.885 7.351 3.128553 30.125789 -2.458615
2012-03-26 08:18:22 51°22.098 3°10.084 7.3581 3.127311 30.101316 -2.458615
2012-03-26 08:19:22 51°22.099 3°10.35 7.365 3.128967 30.114115 -2.458615
2012-03-26 08:20:23 51°22.131 3°10.629 7.377 3.125139 30.066154 -2.458615
2012-03-26 08:21:23 51°22.176 3°10.903 7.3826 3.121518 30.017223 -2.458615
2012-03-26 08:22:22 51°22.198 3°11.182 7.3845 3.121725 30.01142 -2.458615
2012-03-26 08:23:22 51°22.253 3°11.451 7.3866 3.119345 29.991723 -2.458615
2012-03-26 08:24:22 51°22.328 3°11.708 7.3999 3.116138 29.948046 -2.458615
2012-03-26 08:25:22 51°22.399 3°11.967 7.4099 3.114173 29.91201 -2.458615
2012-03-26 08:26:22 51°22.457 3°12.231 7.3999 3.112207 29.894321 -2.458615
2012-03-26 08:27:22 51°22.538 3°12.476 7.4333 3.112104 29.901189 -2.458615
2012-03-26 08:28:22 51°22.621 3°12.719 7.4237 3.116965 29.917767 -2.458615
2012-03-26 08:29:22 51°22.68 3°12.952 7.4415 3.107552 29.828195 -2.458615
2012-03-26 08:30:23 51°22.681 3°13.091 7.4479 3.104552 29.784464 -2.458615
2012-03-26 08:31:22 51°22.68 3°13.194 7.4594 3.105069 29.78044 -2.458615
2012-03-26 08:32:22 51°22.667 3°13.271 7.4695 3.104862 29.763201 -2.458615
2012-03-26 08:33:23 51°22.648 3°13.259 7.4778 3.102896 29.723404 -2.458615
2012-03-26 08:34:22 51°22.64 3°13.216 7.4703 3.102275 29.711305 -2.458615
2012-03-26 08:35:23 51°22.633 3°13.169 7.4535 3.102689 29.722003 -2.458615
2012-03-26 08:36:22 51°22.626 3°13.124 7.469 3.102275 29.722359 -2.458615
2012-03-26 08:37:22 51°22.619 3°13.076 7.4717 3.102689 29.722003 -2.458615
2012-03-26 08:38:23 51°22.611 3°13.026 7.4868 3.102275 29.7192 -2.458615
2012-03-26 08:39:22 51°22.604 3°12.977 7.5141 3.104344 29.713479 -2.458615
2012-03-26 08:40:23 51°22.596 3°12.926 7.5224 3.105585 29.718726 -2.458615
2012-03-26 08:41:23 51°22.587 3°12.876 7.515 3.106516 29.72069 -2.458615
2012-03-26 08:42:22 51°22.58 3°12.827 7.5087 3.106413 29.721172 -2.458615
2012-03-26 08:43:23 51°22.577 3°12.75 7.5109 3.105896 29.719644 -2.458615
2012-03-26 08:44:22 51°22.624 3°12.677 7.49 3.10724 29.733082 -2.458615
2012-03-26 08:45:23 51°22.695 3°12.779 7.4772 3.105585 29.735299 -2.458615
2012-03-26 08:46:23 51°22.699 3°13.035 7.4706 3.107241 29.758352 -2.458615
2012-03-26 08:47:22 51°22.686 3°13.305 7.4697 3.104344 29.738742 -2.458615
2012-03-26 08:48:23 51°22.626 3°13.406 7.4676 3.100724 29.700399 -2.458615
2012-03-26 08:49:22 51°22.613 3°13.383 7.4793 3.10062 29.684318 -2.458615
2012-03-26 08:50:26 51°22.609 3°13.33 7.4516 3.10062 29.696936 -2.458615
2012-03-26 08:51:24 51°22.602 3°13.289 7.4307 3.099172 29.701331 -2.458615
2012-03-26 08:52:23 51°22.592 3°13.255 7.4365 3.097621 29.697525 -2.458615
2012-03-26 08:53:22 51°22.583 3°13.226 7.4571 3.097931 29.696075 -2.458615
2012-03-26 08:54:23 51°22.575 3°13.2 7.4828 3.098965 29.690455 -2.458615
2012-03-26 08:55:22 51°22.567 3°13.179 7.4574 3.100517 29.695052 -2.458615
2012-03-26 08:56:23 51°22.561 3°13.16 7.455 3.099896 29.701106 -2.458615
2012-03-26 08:57:23 51°22.556 3°13.145 7.4625 3.099793 29.701589 -2.458615
2012-03-26 08:58:23 51°22.553 3°13.134 7.4754 3.10031 29.698384 -2.458615
2012-03-26 08:59:23 51°22.552 3°13.126 7.5064 3.100931 29.6947 -2.458615
2012-03-26 09:00:23 51°22.556 3°13.141 7.5742 3.102585 29.679113 -2.458615
2012-03-26 09:01:22 51°22.562 3°13.167 7.5467 3.105688 29.673364 -2.458615
2012-03-26 09:02:23 51°22.566 3°13.171 7.5381 3.104447 29.673615 -2.458615
2012-03-26 09:03:22 51°22.566 3°13.162 7.4905 3.103309 29.679685 -2.458615
2012-03-26 09:04:22 51°22.565 3°13.145 7.4544 3.099896 29.68296 -2.458615
2012-03-26 09:05:22 51°22.562 3°13.123 7.4501 3.097414 29.676387 -2.458615
2012-03-26 09:06:23 51°22.558 3°13.098 7.4787 3.09731 29.674503 -2.458615
2012-03-26 09:07:22 51°22.552 3°13.072 7.4837 3.098965 29.669164 -2.458615
2012-03-26 09:08:23 51°22.546 3°13.043 7.491 3.099586 29.670218 -2.458615
2012-03-26 09:09:23 51°22.54 3°13.013 7.5052 3.100103 29.669389 -2.458615
2012-03-26 09:10:23 51°22.533 3°12.981 7.5222 3.101137 29.664585 -2.458615
2012-03-26 09:11:22 51°22.526 3°12.95 7.538 3.102275 29.664813 -2.458615
2012-03-26 09:12:23 51°22.518 3°12.926 7.5297 3.103516 29.666922 -2.458615
2012-03-26 09:13:23 51°22.534 3°12.969 7.5127 3.102585 29.681476 -2.458615
2012-03-26 09:14:23 51°22.595 3°13.023 7.542 3.101551 29.668174 -2.458615
2012-03-26 09:15:23 51°22.655 3°13.065 7.556 3.10393 29.672082 -2.458615
2012-03-26 09:16:22 51°22.707 3°13.109 7.4944 3.108171 29.72558 -2.458615
2012-03-26 09:17:23 51°22.747 3°13.161 7.5482 3.107965 29.754956 -2.458615
2012-03-26 09:18:23 51°22.784 3°13.214 7.657 3.117481 29.794814 -2.458615
2012-03-26 09:19:23 51°22.825 3°13.255 7.6184 3.133929 29.89112 -2.458615
2012-03-26 09:20:23 51°22.871 3°13.282 7.6146 3.135274 29.928234 -2.458615
2012-03-26 09:21:22 51°22.922 3°13.294 7.6069 3.13693 29.967895 -2.458615
2012-03-26 09:22:22 51°22.974 3°13.306 7.5356 3.137344 29.983374 -2.458615
2012-03-26 09:23:23 51°23.011 3°13.349 7.4968 3.136724 30.030875 -2.458615
2012-03-26 09:24:22 51°23.044 3°13.398 7.5535 3.136413 30.041134 -2.458615
2012-03-26 09:25:22 51°23.079 3°13.446 7.5255 3.142827 30.088335 -2.458615
2012-03-26 09:26:23 51°23.12 3°13.49 7.563 3.145724 30.103048 -2.458615
2012-03-26 09:27:22 51°23.162 3°13.539 7.517 3.148621 30.133713 -2.458615
2012-03-26 09:28:22 51°23.207 3°13.585 7.5689 3.143448 30.10928 -2.458615
2012-03-26 09:29:22 51°23.257 3°13.619 7.5372 3.136413 29.996561 -2.458615
2012-03-26 09:30:22 51°23.301 3°13.663 7.4779 3.12762 29.9337 -2.458615
2012-03-26 09:31:22 51°23.328 3°13.731 7.4826 3.12131 29.904196 -2.458615
2012-03-26 09:32:22 51°23.351 3°13.805 7.5078 3.119344 29.877819 -2.458615
2012-03-26 09:33:23 51°23.369 3°13.881 7.5298 3.120068 29.864872 -2.458615
2012-03-26 09:34:23 51°23.378 3°13.958 7.5386 3.11924 29.841069 -2.458615
2012-03-26 09:35:23 51°23.363 3°14.027 7.5291 3.117688 29.821491 -2.458615
2012-03-26 09:36:22 51°23.336 3°14.056 7.5432 3.114481 29.785995 -2.458615
2012-03-26 09:37:23 51°23.308 3°14.062 7.5278 3.113654 29.77014 -2.458615
2012-03-26 09:38:22 51°23.286 3°14.085 7.5493 3.114481 29.787574 -2.458615
2012-03-26 09:39:23 51°23.319 3°14.116 7.5728 3.115723 29.787277 -2.458615
2012-03-26 09:40:22 51°23.439 3°14.033 7.5612 3.115722 29.758887 -2.458615
2012-03-26 09:41:22 51°23.623 3°13.902 7.5236 3.110447 29.724423 -2.458615
2012-03-26 09:42:23 51°23.817 3°13.778 7.5195 3.114275 29.792496 -2.458615
2012-03-26 09:43:23 51°24.013 3°13.685 7.5005 3.112723 29.778452 -2.458615
2012-03-26 09:44:23 51°24.203 3°13.549 7.4823 3.11593 29.829783 -2.458615
2012-03-26 09:45:23 51°24.381 3°13.353 7.4937 3.119965 29.889949 -2.458615
2012-03-26 09:46:23 51°24.519 3°13.076 7.4974 3.121827 29.897766 -2.458615
2012-03-26 09:47:22 51°24.609 3°12.753 7.4451 3.123172 29.91598 -2.458615
2012-03-26 09:48:23 51°24.636 3°12.385 7.4133 3.124724 29.96982 -2.458615
2012-03-26 09:49:22 51°24.648 3°12.023 7.3935 3.130828 30.064146 -2.458615
2012-03-26 09:50:23 51°24.658 3°11.649 7.4148 3.143553 30.206564 -2.458615
2012-03-26 09:51:23 51°24.658 3°11.289 7.3261 3.165175 30.440563 -2.458615
2012-03-26 09:52:23 51°24.648 3°10.929 7.3225 3.170452 30.539828 -2.458615
2012-03-26 09:53:23 51°24.632 3°10.571 7.3137 3.168797 30.542552 -2.458615
2012-03-26 09:54:22 51°24.609 3°10.22 7.3183 3.167349 30.53607 -2.458615
2012-03-26 09:55:23 51°24.632 3°9.867 7.322 3.166314 30.519329 -2.458615
2012-03-26 09:56:22 51°24.685 3°9.539 7.3502 3.163831 30.482269 -2.458615
2012-03-26 09:57:23 51°24.728 3°9.201 7.3519 3.158761 30.412002 -2.458615
2012-03-26 09:58:23 51°24.764 3°8.871 7.3346 3.160313 30.426911 -2.458615
2012-03-26 09:59:23 51°24.817 3°8.548 7.2903 3.170039 30.550085 -2.458615
2012-03-26 10:00:23 51°24.863 3°8.222 7.249 3.181523 30.711113 -2.458615
2012-03-26 10:01:22 51°24.897 3°7.895 7.2098 3.186593 30.800681 -2.458615
2012-03-26 10:02:23 51°24.987 3°7.6 7.1788 3.192905 30.902119 -2.458615
2012-03-26 10:03:22 51°25.141 3°7.435 7.1662 3.197458 30.975797 -2.458615
2012-03-26 10:04:23 51°25.327 3°7.416 7.1616 3.196216 30.970788 -2.458615
2012-03-26 10:05:22 51°25.5 3°7.496 7.1585 3.195803 30.970503 -2.458615
2012-03-26 10:06:23 51°25.664 3°7.635 7.1545 3.196734 30.987144 -2.458615
2012-03-26 10:07:22 51°25.824 3°7.764 7.1392 3.196837 30.994077 -2.458615
2012-03-26 10:08:23 51°25.991 3°7.883 7.1259 3.194044 30.974073 -2.458615
2012-03-26 10:09:23 51°26.161 3°7.982 7.0946 3.19332 30.981273 -2.458615
2012-03-26 10:10:23 51°26.29 3°8.113 7.1169 3.197976 31.050469 -2.458615
2012-03-26 10:11:23 51°26.355 3°8.222 7.1491 3.215048 31.218939 -2.458615
2012-03-26 10:12:22 51°26.432 3°8.304 7.1713 3.223118 31.274638 -2.458615
2012-03-26 10:13:23 51°26.467 3°8.36 7.157 3.229016 31.328771 -2.458615
2012-03-26 10:14:22 51°26.448 3°8.372 7.1762 3.232327 31.358461 -2.458615
2012-03-26 10:15:22 51°26.42 3°8.368 7.2192 3.233466 31.372375 -2.458615
2012-03-26 10:16:22 51°26.391 3°8.356 7.1402 3.235224 31.373601 -2.458615
2012-03-26 10:17:23 51°26.357 3°8.354 7.1083 3.2315 31.384935 -2.458615
2012-03-26 10:18:23 51°26.346 3°8.41 7.103 3.228499 31.37373 -2.458615
2012-03-26 10:19:22 51°26.415 3°8.403 7.1244 3.227154 31.365999 -2.458615
2012-03-26 10:20:22 51°26.48 3°8.397 7.181 3.232638 31.403083 -2.458615
2012-03-26 10:21:23 51°26.494 3°8.418 7.2046 3.240295 31.430593 -2.458615
2012-03-26 10:22:23 51°26.484 3°8.433 7.1985 3.245261 31.445174 -2.458615
2012-03-26 10:23:22 51°26.469 3°8.444 7.2284 3.245882 31.47966 -2.458615
2012-03-26 10:24:22 51°26.452 3°8.449 7.1801 3.246917 31.466315 -2.458615
2012-03-26 10:25:22 51°26.433 3°8.451 7.1425 3.245468 31.482809 -2.458615
2012-03-26 10:26:23 51°26.412 3°8.45 7.1319 3.242985 31.484831 -2.458615
2012-03-26 10:27:22 51°26.392 3°8.447 7.1146 3.241537 31.488693 -2.458615
2012-03-26 10:28:22 51°26.373 3°8.445 7.1168 3.240502 31.480096 -2.458615
2012-03-26 10:29:23 51°26.355 3°8.442 7.1369 3.240606 31.474446 -2.458615
2012-03-26 10:30:23 51°26.338 3°8.438 7.1132 3.241744 31.479083 -2.458615
2012-03-26 10:31:23 51°26.32 3°8.432 7.1582 3.239985 31.480449 -2.458615
2012-03-26 10:32:22 51°26.304 3°8.426 7.1085 3.241537 31.480238 -2.458615
2012-03-26 10:33:23 51°26.289 3°8.418 7.1483 3.239364 31.473767 -2.458615
2012-03-26 10:34:23 51°26.274 3°8.408 7.1542 3.242882 31.465139 -2.458615
2012-03-26 10:35:23 51°26.26 3°8.396 7.165 3.242985 31.486522 -2.458615
2012-03-26 10:36:22 51°26.246 3°8.379 7.1501 3.243296 31.483945 -2.458615
2012-03-26 10:37:23 51°26.233 3°8.358 7.14 3.242882 31.492172 -2.458615
2012-03-26 10:38:23 51°26.22 3°8.334 7.1362 3.242675 31.496711 -2.458615
2012-03-26 10:39:22 51°26.207 3°8.307 7.1403 3.242675 31.494174 -2.458615
2012-03-26 10:40:23 51°26.202 3°8.268 7.1266 3.243296 31.505929 -2.458615
2012-03-26 10:41:22 51°26.226 3°8.223 7.1447 3.242261 31.499025 -2.458615
2012-03-26 10:42:23 51°26.266 3°8.208 7.1498 3.244951 31.511896 -2.458615
2012-03-26 10:43:23 51°26.31 3°8.239 7.153 3.246297 31.526367 -2.458615
2012-03-26 10:44:23 51°26.35 3°8.308 7.1583 3.248573 31.539004 -2.458615
2012-03-26 10:45:22 51°26.381 3°8.394 7.1584 3.249711 31.557174 -2.458615
2012-03-26 10:46:22 51°26.414 3°8.465 7.1632 3.250642 31.557875 -2.458615
2012-03-26 10:47:23 51°26.442 3°8.524 7.2018 3.251263 31.559471 -2.458615
2012-03-26 10:48:22 51°26.464 3°8.578 7.1816 3.252815 31.565153 -2.458615
2012-03-26 10:49:23 51°26.484 3°8.637 7.1957 3.252919 31.557803 -2.458615
2012-03-26 10:50:22 51°26.503 3°8.693 7.2032 3.254057 31.559883 -2.458615
2012-03-26 10:51:22 51°26.524 3°8.748 7.1953 3.253643 31.557973 -2.458615
2012-03-26 10:52:22 51°26.547 3°8.801 7.2 3.253022 31.557223 -2.458615
2012-03-26 10:53:22 51°26.572 3°8.853 7.198 3.253022 31.547919 -2.458615
2012-03-26 10:54:22 51°26.597 3°8.908 7.2149 3.252091 31.545523 -2.458615
2012-03-26 10:55:23 51°26.623 3°8.976 7.207 3.252608 31.538401 -2.458615
2012-03-26 10:56:22 51°26.648 3°9.047 7.2109 3.252194 31.5348 -2.458615
2012-03-26 10:57:23 51°26.676 3°9.12 7.2094 3.251366 31.524218 -2.458615
2012-03-26 10:58:23 51°26.701 3°9.197 7.2128 3.250539 31.513638 -2.458615
2012-03-26 10:59:22 51°26.7 3°9.291 7.205 3.250125 31.510882 -2.458615
2012-03-26 11:00:22 51°26.668 3°9.389 7.2112 3.248262 31.496786 -2.458615
2012-03-26 11:01:22 51°26.604 3°9.465 7.2209 3.247331 31.480877 -2.458615
2012-03-26 11:02:22 51°26.527 3°9.477 7.2385 3.247538 31.474666 -2.458615
2012-03-26 11:03:23 51°26.465 3°9.462 7.2275 3.248262 31.470641 -2.458615
2012-03-26 11:04:22 51°26.411 3°9.439 7.2165 3.248055 31.476005 -2.458615
2012-03-26 11:05:22 51°26.347 3°9.334 7.2255 3.24671 31.462408 -2.458615
2012-03-26 11:06:23 51°26.378 3°9.191 7.2231 3.243398 31.422659 -2.458615
2012-03-26 11:07:23 51°26.501 3°9.176 7.2252 3.243605 31.424038 -2.458615
2012-03-26 11:08:22 51°26.664 3°9.234 7.2076 3.243088 31.423535 -2.458615
2012-03-26 11:09:22 51°26.837 3°9.313 7.2165 3.244537 31.445821 -2.458615
2012-03-26 11:10:22 51°27.011 3°9.379 7.212 3.243812 31.435519 -2.458615
2012-03-26 11:11:22 51°27.189 3°9.417 7.228 3.243605 31.42993 -2.458615
2012-03-26 11:12:23 51°27.371 3°9.434 7.2365 3.246399 31.449811 -2.458615
2012-03-26 11:13:22 51°27.543 3°9.486 7.2448 3.250435 31.48132 -2.458615
2012-03-26 11:14:23 51°27.721 3°9.536 7.2365 3.253125 31.515248 -2.458615
2012-03-26 11:15:22 51°27.897 3°9.565 7.1886 3.25654 31.558657 -2.458615
2012-03-26 11:16:22 51°28.071 3°9.637 7.2103 3.257782 31.616012 -2.458615
2012-03-26 11:17:22 51°28.248 3°9.669 7.1837 3.261714 31.614212 -2.458615
2012-03-26 11:18:22 51°28.428 3°9.68 7.1635 3.262335 31.664122 -2.458615
2012-03-26 11:19:22 51°28.601 3°9.753 7.1725 3.262025 31.679473 -2.458615
2012-03-26 11:20:22 51°28.757 3°9.79 7.1832 3.250435 31.515905 -2.458615
2012-03-26 11:21:22 51°28.854 3°9.815 7.1168 3.254057 31.581044 -2.458615
2012-03-26 11:22:22 51°28.89 3°9.848 7.1809 3.252506 31.634788 -2.458615
2012-03-26 11:23:22 51°28.899 3°9.878 7.1524 3.254575 31.604408 -2.458615
2012-03-26 11:24:22 51°28.914 3°9.882 7.1909 3.254368 31.612363 -2.458615
2012-03-26 11:25:23 51°28.9 3°9.864 7.1827 3.257782 31.604994 -2.458615
2012-03-26 11:26:22 51°28.884 3°9.843 7.1036 3.257472 31.633883 -2.458615
2012-03-26 11:27:22 51°28.883 3°9.841 7.0908 3.253127 31.652542 -2.458615
2012-03-26 11:28:22 51°28.883 3°9.842 7.1322 3.253023 31.628457 -2.458615
2012-03-26 11:29:23 51°28.883 3°9.841 7.1172 3.254575 31.632425 -2.458615
2012-03-26 11:30:22 51°28.884 3°9.84 7.0795 3.253851 31.643327 -2.458615
2012-03-26 11:31:22 51°28.885 3°9.838 7.0652 3.252299 31.656391 -2.458615
2012-03-26 11:32:23 51°28.885 3°9.838 7.0526 3.251058 31.665157 -2.458615
2012-03-26 11:33:22 51°28.884 3°9.839 7.0144 3.250126 31.671314 -2.458615
2012-03-26 11:34:23 51°28.884 3°9.839 6.991 3.248781 31.668739 -2.458615
2012-03-26 11:35:22 51°28.884 3°9.839 7.1127 3.24785 31.665511 -2.458615
2012-03-26 11:36:22 51°28.885 3°9.838 7.1078 3.252299 31.640214 -2.458615
2012-03-26 11:37:22 51°28.885 3°9.837 7.0891 3.252402 31.634523 -2.458615
2012-03-26 11:38:22 51°28.884 3°9.838 7.0263 3.251575 31.646877 -2.458615
2012-03-26 11:39:23 51°28.884 3°9.839 7.0754 3.248574 31.66053 -2.458615
2012-03-26 11:40:22 51°28.884 3°9.839 7.0849 3.249505 31.62967 -2.458615
2012-03-26 11:41:23 51°28.884 3°9.837 7.0885 3.250126 31.626152 -2.458615
2012-03-26 11:42:22 51°28.885 3°9.837 7.105 3.25085 31.6093 -2.458615
2012-03-26 11:43:22 51°28.885 3°9.838 7.1165 3.251161 31.628797 -2.458615
2012-03-26 11:44:22 51°28.884 3°9.839 7.0945 3.251264 31.624809 -2.458615
2012-03-26 11:45:22 51°28.884 3°9.839 7.0519 3.250126 31.621047 -2.458615
2012-03-26 11:46:23 51°28.884 3°9.839 7.0905 3.248057 31.635335 -2.458615
2012-03-26 11:47:22 51°28.884 3°9.839 7.091 3.249298 31.604474 -2.458615
2012-03-26 11:48:23 51°28.884 3°9.839 7.0868 3.249195 31.626323 -2.458615
2012-03-26 11:49:23 51°28.884 3°9.839 7.1135 3.248781 31.602299 -2.458615
2012-03-26 11:50:23 51°28.884 3°9.839 7.0883 3.249919 31.603516 -2.458615
2012-03-26 11:51:22 51°28.884 3°9.839 7.0758 3.248367 31.60804 -2.458615
2012-03-26 11:52:22 51°28.884 3°9.84 7.0709 3.247539 31.614427 -2.458615
2012-03-26 11:53:22 51°28.884 3°9.841 7.0549 3.246815 31.607466 -2.458615
2012-03-26 11:54:22 51°28.884 3°9.84 7.0576 3.246091 31.605611 -2.458615
2012-03-26 11:55:22 51°28.889 3°9.844 7.0337 3.24547 31.601467 -2.458615
2012-03-26 11:56:23 51°28.898 3°9.855 7.0505 3.244642 31.606155 -2.458615
2012-03-26 11:57:23 51°28.905 3°9.866 7.0178 3.244849 31.596472 -2.458615
2012-03-26 11:58:23 51°28.906 3°9.869 7.0075 3.243297 31.610375 -2.458615
2012-03-26 11:59:22 51°28.972 3°9.933 7.0019 3.242366 31.622485 -2.458615
2012-03-26 12:00:22 51°29.072 3°10.118 6.9644 3.241331 31.613865 -2.458615
2012-03-26 12:01:23 51°29.206 3°10.255 6.9241 3.239883 31.62552 -2.458615
2012-03-26 12:02:22 51°29.359 3°10.328 6.8866 3.238021 31.634429 -2.458615
2012-03-26 12:03:23 51°29.519 3°10.407 6.8397 3.236055 31.653374 -2.458615
2012-03-26 12:04:23 51°29.677 3°10.48 6.8064 3.233262 31.667687 -2.458615
2012-03-26 12:05:23 51°29.796 3°10.506 6.7834 3.230469 31.663135 -2.458615
2012-03-26 12:06:22 51°29.833 3°10.538 6.7677 3.228296 31.661027 -2.458615
2012-03-26 12:07:22 51°29.85 3°10.575 6.7716 3.226847 31.656468 -2.458615
2012-03-26 12:08:22 51°29.871 3°10.571 6.7723 3.22633 31.655146 -2.458615
2012-03-26 12:09:22 51°29.894 3°10.57 6.7555 3.226227 31.654882 -2.458615
2012-03-26 12:10:22 51°29.896 3°10.574 6.7638 3.224985 31.649989 -2.458615
2012-03-26 12:11:23 51°29.882 3°10.574 6.761 3.225399 31.648466 -2.458615
2012-03-26 12:12:23 51°29.874 3°10.571 6.7543 3.225088 31.648533 -2.458615
2012-03-26 12:13:22 51°29.875 3°10.569 6.75 3.224468 31.648667 -2.458615
2012-03-26 12:14:23 51°29.876 3°10.565 6.7632 3.224261 31.642116 -2.458615
2012-03-26 12:15:22 51°29.876 3°10.565 6.7619 3.224468 31.636627 -2.458615
2012-03-26 12:16:22 51°29.875 3°10.568 6.7646 3.223433 31.625383 -2.458615
2012-03-26 12:17:22 51°29.874 3°10.573 6.7458 3.223226 31.625713 -2.458615
2012-03-26 12:18:22 51°29.874 3°10.575 6.7646 3.221984 31.625972 -2.458615
2012-03-26 12:19:22 51°29.874 3°10.571 6.7645 3.223226 31.623994 -2.458615
2012-03-26 12:20:22 51°29.875 3°10.567 6.7531 3.211948 31.504042 -2.458615
2012-03-26 12:21:23 51°29.875 3°10.566 6.7532 3.211223 31.503024 -2.458615
2012-03-26 12:22:23 51°29.875 3°10.568 6.7412 3.210603 31.497136 -2.458615
2012-03-26 12:23:22 51°29.874 3°10.572 6.7332 3.209154 31.495098 -2.458615
2012-03-26 12:24:22 51°29.874 3°10.575 6.7407 3.208844 31.486587 -2.458615
2012-03-26 12:25:22 51°29.874 3°10.573 6.7339 3.208844 31.493438 -2.458615
2012-03-26 12:26:22 51°29.875 3°10.569 6.7435 3.208326 31.488672 -2.458615
2012-03-26 12:27:22 51°29.875 3°10.568 6.7802 3.209154 31.48996 -2.458615
2012-03-26 12:28:22 51°29.874 3°10.57 6.7406 3.212465 31.497678 -2.458615
2012-03-26 12:29:22 51°29.878 3°10.573 6.734 3.209568 31.50131 -2.458615
2012-03-26 12:30:23 51°29.887 3°10.577 6.7246 3.20812 31.492419 -2.458615
2012-03-26 12:31:23 51°29.89 3°10.583 6.7542 3.207188 31.480584 -2.458615
2012-03-26 12:32:23 51°29.886 3°10.587 6.7477 3.20843 31.480379 -2.458615
2012-03-26 12:33:23 51°29.894 3°10.582 6.7503 3.208119 31.473583 -2.458615
2012-03-26 12:34:23 51°29.898 3°10.497 6.7138 3.206774 31.473517 -2.458615
2012-03-26 12:35:23 51°29.833 3°10.278 6.7156 3.205843 31.472814 -2.458615
2012-03-26 12:36:23 51°29.768 3°9.96 6.7242 3.204705 31.46301 -2.458615
2012-03-26 12:37:23 51°29.673 3°9.645 6.7428 3.203877 31.451445 -2.458615
2012-03-26 12:38:23 51°29.562 3°9.34 6.7371 3.203567 31.433532 -2.458615
2012-03-26 12:39:23 51°29.457 3°9.03 6.6891 3.202118 31.422068 -2.458615
2012-03-26 12:40:23 51°29.345 3°8.728 6.6451 3.197773 31.425287 -2.458615
2012-03-26 12:41:23 51°29.252 3°8.413 6.6294 3.192187 31.394443 -2.458615
2012-03-26 12:42:23 51°29.139 3°8.112 6.6227 3.190117 31.384753 -2.458615
2012-03-26 12:43:23 51°29.049 3°7.794 6.6162 3.188669 31.37497 -2.458615
2012-03-26 12:44:23 51°28.95 3°7.484 6.6117 3.187738 31.37082 -2.458615
2012-03-26 12:45:23 51°28.858 3°7.169 6.6216 3.187738 31.37082 -2.458615
2012-03-26 12:46:23 51°28.776 3°6.849 6.6413 3.188255 31.369605 -2.458615
2012-03-26 12:47:23 51°28.685 3°6.534 6.6684 3.190117 31.37448 -2.458615
2012-03-26 12:48:23 51°28.601 3°6.216 6.6871 3.191876 31.362837 -2.458615
2012-03-26 12:49:23 51°28.556 3°5.884 6.6826 3.191979 31.349442 -2.458615
2012-03-26 12:50:23 51°28.521 3°5.551 6.6816 3.18991 31.337185 -2.458615
2012-03-26 12:51:23 51°28.479 3°5.218 6.6933 3.188668 31.324536 -2.458615
2012-03-26 12:52:23 51°28.418 3°4.892 6.7232 3.189599 31.316747 -2.458615
2012-03-26 12:53:23 51°28.353 3°4.566 6.7477 3.191772 31.312233 -2.458615
2012-03-26 12:54:23 51°28.296 3°4.238 6.7661 3.192392 31.298545 -2.458615
2012-03-26 12:55:23 51°28.268 3°3.924 6.7748 3.191875 31.281878 -2.458615
2012-03-26 12:56:23 51°28.262 3°3.693 6.7867 3.191668 31.270287 -2.458615
2012-03-26 12:57:23 51°28.271 3°3.525 6.779 3.191047 31.257612 -2.458615
2012-03-26 12:58:23 51°28.244 3°3.418 6.795 3.190323 31.242971 -2.458615
2012-03-26 12:59:23 51°28.197 3°3.393 6.7875 3.188253 31.21376 -2.458615
2012-03-26 13:00:23 51°28.189 3°3.39 6.7925 3.187012 31.215554 -2.458615
2012-03-26 13:01:26 51°28.184 3°3.385 6.8272 3.186908 31.20003 -2.458615
2012-03-26 13:02:24 51°28.176 3°3.382 6.804 3.188874 31.195935 -2.458615
2012-03-26 13:03:23 51°28.167 3°3.381 6.8202 3.186598 31.202594 -2.458615
2012-03-26 13:04:23 51°28.155 3°3.381 6.8258 3.186908 31.180566 -2.458615
2012-03-26 13:05:23 51°28.142 3°3.383 6.8379 3.187218 31.175472 -2.458615
2012-03-26 13:06:23 51°28.128 3°3.387 6.8269 3.187218 31.172936 -2.458615
2012-03-26 13:07:23 51°28.114 3°3.392 6.8235 3.185873 31.163444 -2.458615
2012-03-26 13:08:23 51°28.1 3°3.398 6.8331 3.185149 31.156447 -2.458615
2012-03-26 13:09:23 51°28.086 3°3.405 6.8186 3.185356 31.15024 -2.458615
2012-03-26 13:10:23 51°28.072 3°3.413 6.8206 3.183908 31.148916 -2.458615
2012-03-26 13:11:24 51°28.058 3°3.42 6.8416 3.183183 31.13854 -2.458615
2012-03-26 13:12:23 51°28.045 3°3.428 6.8519 3.183908 31.135405 -2.458615
2012-03-26 13:13:23 51°28.032 3°3.435 6.8362 3.184321 31.124697 -2.458615
2012-03-26 13:14:23 51°28.019 3°3.441 6.8108 3.18308 31.134042 -2.458615
2012-03-26 13:15:23 51°28.007 3°3.447 6.8058 3.180183 31.114492 -2.458615
2012-03-26 13:16:23 51°27.995 3°3.454 6.812 3.178838 31.10921 -2.458615
2012-03-26 13:17:23 51°27.985 3°3.461 6.849 3.178631 31.095155 -2.458615
2012-03-26 13:18:23 51°27.974 3°3.468 6.8648 3.181424 31.090828 -2.458615
2012-03-26 13:19:23 51°27.964 3°3.476 6.8667 3.182252 31.0922 -2.458615
2012-03-26 13:20:23 51°27.954 3°3.485 6.8459 3.181631 31.081277 -2.458615
2012-03-26 13:21:23 51°27.943 3°3.495 6.8443 3.178217 31.067921 -2.458615
2012-03-26 13:22:23 51°27.903 3°3.508 6.8257 3.1777 31.062323 -2.458615
2012-03-26 13:23:23 51°27.881 3°3.427 6.8292 3.175941 31.054237 -2.458615
2012-03-26 13:24:23 51°27.93 3°3.37 6.8287 3.174596 31.037157 -2.458615
2012-03-26 13:25:23 51°27.978 3°3.352 6.8309 3.174182 31.02679 -2.458615
2012-03-26 13:26:23 51°28.032 3°3.355 6.8366 3.172941 31.020086 -2.458615
2012-03-26 13:27:23 51°28.099 3°3.39 6.8423 3.172527 31.005521 -2.458615
2012-03-26 13:28:23 51°28.155 3°3.459 6.8283 3.171595 31.001331 -2.458615
2012-03-26 13:29:23 51°28.193 3°3.545 6.8364 3.170044 30.991264 -2.458615
2012-03-26 13:30:23 51°28.214 3°3.634 6.8445 3.16963 30.980066 -2.458615
2012-03-26 13:31:23 51°28.222 3°3.723 6.8495 3.169112 30.972791 -2.458615
2012-03-26 13:32:23 51°28.222 3°3.812 6.8372 3.169009 30.967475 -2.458615
2012-03-26 13:33:23 51°28.223 3°3.899 6.8298 3.167043 30.953768 -2.458615
2012-03-26 13:34:23 51°28.223 3°3.984 6.8352 3.166112 30.937825 -2.458615
2012-03-26 13:35:23 51°28.223 3°4.07 6.86 3.165905 30.927206 -2.458615
2012-03-26 13:36:23 51°28.222 3°4.156 6.8401 3.165077 30.923285 -2.458615
2012-03-26 13:37:23 51°28.22 3°4.241 6.8368 3.162388 30.91012 -2.458615
2012-03-26 13:38:23 51°28.203 3°4.32 6.8386 3.161663 30.894747 -2.458615
2012-03-26 13:39:23 51°28.171 3°4.39 6.8592 3.160732 30.88133 -2.458615
2012-03-26 13:40:23 51°28.13 3°4.454 6.8753 3.161663 30.872152 -2.458615
2012-03-26 13:41:23 51°28.08 3°4.51 6.856 3.162284 30.868826 -2.458615
2012-03-26 13:42:23 51°28.024 3°4.528 6.8616 3.159904 30.862344 -2.458615
2012-03-26 13:43:23 51°27.977 3°4.519 6.8401 3.158146 30.846679 -2.458615
2012-03-26 13:44:23 51°27.949 3°4.51 6.832 3.156904 30.832426 -2.458615
2012-03-26 13:45:23 51°27.93 3°4.506 6.8323 3.154628 30.829551 -2.458615
2012-03-26 13:46:23 51°27.917 3°4.506 6.8406 3.153594 30.807503 -2.458615
2012-03-26 13:47:23 51°27.873 3°4.44 6.8625 3.153697 30.802777 -2.458615
2012-03-26 13:48:23 51°27.726 3°4.292 6.8461 3.153386 30.777736 -2.458615
2012-03-26 13:49:23 51°27.554 3°4.139 6.8574 3.153387 30.785239 -2.458615
2012-03-26 13:50:23 51°27.382 3°3.986 6.8596 3.192288 31.211754 -2.458615
2012-03-26 13:51:23 51°27.203 3°3.852 6.881 3.264305 31.972631 -2.458615
2012-03-26 13:52:23 51°27.027 3°3.716 6.8715 3.265857 31.984281 -2.458615
2012-03-26 13:53:23 51°26.861 3°3.555 6.9006 3.266167 31.981587 -2.458615
2012-03-26 13:54:23 51°26.685 3°3.425 6.9048 3.267098 31.974379 -2.458615
2012-03-26 13:55:23 51°26.517 3°3.281 6.9308 3.264925 31.948219 -2.458615
2012-03-26 13:56:23 51°26.349 3°3.137 6.9642 3.263787 31.901354 -2.458615
2012-03-26 13:57:23 51°26.182 3°2.992 6.9835 3.263476 31.873874 -2.458615
2012-03-26 13:58:23 51°26.016 3°2.844 7.0223 3.261613 31.828795 -2.458615
2012-03-26 13:59:23 51°25.842 3°2.716 7.0417 3.25975 31.780365 -2.458615
2012-03-26 14:00:24 51°25.672 3°2.57 7.0542 3.256128 31.723292 -2.458615
2012-03-26 14:01:23 51°25.506 3°2.431 7.0832 3.252713 31.677904 -2.458615
2012-03-26 14:02:23 51°25.328 3°2.313 7.0851 3.252402 31.637926 -2.458615
2012-03-26 14:03:23 51°25.161 3°2.164 7.089 3.247953 31.58998 -2.458615
2012-03-26 14:04:23 51°24.995 3°2.014 7.0785 3.243193 31.548033 -2.458615
2012-03-26 14:05:23 51°24.824 3°1.875 7.1383 3.241434 31.522296 -2.458615
2012-03-26 14:06:23 51°24.651 3°1.748 7.183 3.241123 31.456359 -2.458615
2012-03-26 14:07:23 51°24.487 3°1.592 7.1383 3.242882 31.460919 -2.458615
2012-03-26 14:08:23 51°24.318 3°1.448 7.1906 3.239985 31.466922 -2.458615
2012-03-26 14:09:23 51°24.144 3°1.312 7.1615 3.241019 31.450183 -2.458615
2012-03-26 14:10:23 51°23.977 3°1.161 7.1856 3.242468 31.467443 -2.458615
2012-03-26 14:11:23 51°23.805 3°1.023 7.1695 3.244641 31.488269 -2.458615
2012-03-26 14:12:23 51°23.629 3°0.901 7.1585 3.243503 31.485325 -2.458615
2012-03-26 14:13:23 51°23.467 3°0.747 7.2019 3.242882 31.471892 -2.458615
2012-03-26 14:14:23 51°23.299 3°0.617 7.1832 3.24164 31.430717 -2.458615
2012-03-26 14:15:23 51°23.14 3°0.471 7.333 3.232431 31.345277 -2.458615
2012-03-26 14:16:24 51°22.974 3°0.338 7.2963 3.20801 30.959507 -2.458615
2012-03-26 14:17:23 51°22.806 3°0.227 7.274 3.203975 30.952756 -2.458615
2012-03-26 14:18:23 51°22.645 3°0.086 7.2778 3.199527 30.939085 -2.458615
2012-03-26 14:19:23 51°22.49 2°59.932 7.4175 3.195284 30.843333 -2.458615
2012-03-26 14:20:23 51°22.33 2°59.791 7.4022 3.194352 30.750431 -2.458615
2012-03-26 14:21:23 51°22.164 2°59.668 7.3233 3.184419 30.647067 -2.458615
2012-03-26 14:22:23 51°21.998 2°59.544 7.3753 3.174281 30.602676 -2.458615
2012-03-26 14:23:23 51°21.847 2°59.384 7.4292 3.177177 30.592754 -2.458615
2012-03-26 14:24:23 51°21.718 2°59.177 7.4342 3.182453 30.588655 -2.458615
2012-03-26 14:25:23 51°21.585 2°58.977 7.4487 3.182039 30.57856 -2.458615
2012-03-26 14:26:23 51°21.44 2°58.802 7.4292 3.182349 30.568854 -2.458615
2012-03-26 14:27:23 51°21.295 2°58.628 7.4814 3.173865 30.494083 -2.458615
2012-03-26 14:28:23 51°21.162 2°58.433 7.5406 3.172313 30.43873 -2.458615
2012-03-26 14:29:23 51°21.029 2°58.24 7.5309 3.172726 30.400339 -2.458615
2012-03-26 14:30:23 51°20.886 2°58.065 7.5062 3.168485 30.355368 -2.458615
2012-03-26 14:31:23 51°20.747 2°57.883 7.5629 3.155656 30.227431 -2.458615
2012-03-26 14:32:23 51°20.61 2°57.695 7.6431 3.150793 30.133556 -2.458615
2012-03-26 14:33:23 51°20.472 2°57.507 7.7067 3.155034 30.148101 -2.458615
2012-03-26 14:34:23 51°20.336 2°57.32 7.5581 3.155862 30.139313 -2.458615
2012-03-26 14:35:23 51°20.202 2°57.131 7.6033 3.144172 30.073073 -2.458615
2012-03-26 14:36:23 51°20.061 2°56.951 7.6334 3.146861 30.065697 -2.458615
2012-03-26 14:37:23 51°19.932 2°56.753 7.6394 3.149033 30.067184 -2.458615
2012-03-26 14:38:23 51°19.795 2°56.568 7.6903 3.14655 30.024296 -2.458615
2012-03-26 14:39:23 51°19.652 2°56.393 7.6781 3.148102 30.001052 -2.458615
2012-03-26 14:40:23 51°19.524 2°56.19 7.6734 3.144895 29.980691 -2.458615
2012-03-26 14:41:23 51°19.388 2°56.001 7.6543 3.142722 29.970439 -2.458615
2012-03-26 14:42:23 51°19.253 2°55.808 7.6596 3.140757 29.957616 -2.458615
2012-03-26 14:43:23 51°19.113 2°55.623 7.698 3.140446 29.946433 -2.458615
2012-03-26 14:44:23 51°18.987 2°55.412 7.6537 3.142515 29.947699 -2.458615
2012-03-26 14:45:23 51°18.878 2°55.179 7.6548 3.139205 29.943618 -2.458615
2012-03-26 14:46:23 51°18.765 2°54.95 7.6648 3.138067 29.930822 -2.458615
2012-03-26 14:47:23 51°18.633 2°54.745 7.6938 3.138584 29.921264 -2.458615
2012-03-26 14:48:23 51°18.511 2°54.53 7.6881 3.140032 29.921529 -2.458615
2012-03-26 14:49:23 51°18.404 2°54.294 7.6806 3.139412 29.917355 -2.458615
2012-03-26 14:50:23 51°18.29 2°54.066 7.6762 3.138584 29.915736 -2.458615
2012-03-26 14:51:23 51°18.142 2°53.894 7.6718 3.13817 29.912953 -2.458615
2012-03-26 14:52:23 51°17.987 2°53.736 7.6699 3.138274 29.920361 -2.458615
2012-03-26 14:53:23 51°17.835 2°53.575 7.677 3.138998 29.927207 -2.458615
2012-03-26 14:54:23 51°17.687 2°53.401 7.6797 3.141067 29.941912 -2.458615
2012-03-26 14:55:23 51°17.519 2°53.285 7.6846 3.14355 29.96651 -2.458615
2012-03-26 14:56:23 51°17.335 2°53.228 7.6794 3.147998 30.011044 -2.458615
2012-03-26 14:57:23 51°17.146 2°53.216 7.6866 3.14924 30.048719 -2.458615
2012-03-26 14:58:23 51°16.956 2°53.202 7.6853 3.153171 30.084654 -2.458615
2012-03-26 14:59:23 51°16.764 2°53.211 7.6939 3.160207 30.15653 -2.458615
2012-03-26 15:00:23 51°16.569 2°53.264 7.7168 3.16838 30.234051 -2.458615
2012-03-26 15:01:23 51°16.374 2°53.303 7.801 3.176346 30.296584 -2.458615
2012-03-26 15:02:23 51°16.183 2°53.367 7.9897 3.181311 30.243719 -2.458615
2012-03-26 15:03:23 51°15.99 2°53.457 7.9066 3.185345 30.178347 -2.458615
2012-03-26 15:04:23 51°15.798 2°53.549 7.8339 3.18607 30.27152 -2.458615
2012-03-26 15:05:23 51°15.629 2°53.727 7.8115 3.191657 30.378932 -2.458615
2012-03-26 15:06:23 51°15.468 2°53.932 7.8322 3.185967 30.326972 -2.458615
2012-03-26 15:07:23 51°15.304 2°54.13 7.8806 3.179345 30.227806 -2.458615
2012-03-26 15:08:23 51°15.143 2°54.331 7.9206 3.170447 30.097834 -2.458615
2012-03-26 15:09:23 51°14.979 2°54.53 7.9518 3.153686 29.891271 -2.458615
2012-03-26 15:10:23 51°14.818 2°54.735 7.9871 3.150893 29.83696 -2.458615
2012-03-26 15:11:23 51°14.649 2°54.902 8.0595 3.158341 29.884473 -2.458615
2012-03-26 15:12:23 51°14.478 2°55.046 8.1137 3.165169 29.888722 -2.458615
2012-03-26 15:13:27 51°14.313 2°55.216 8.4084 1.654507 14.681585 -2.458615
2012-03-26 15:14:27 51°14.16 2°55.379 8.4942 1.635426 14.497677 -2.458615
2012-03-26 15:15:27 51°14.016 2°55.487 8.5963 1.61944 14.344144 -2.458615
2012-03-26 15:16:26 51°13.899 2°55.569 8.6996 1.620059 14.348978 -2.458615
2012-03-26 15:17:27 51°13.789 2°55.66 8.761 1.613561 14.284611 -2.458615
2012-03-26 15:18:26 51°13.712 2°55.775 8.8396 1.613149 14.276556 -2.458615
2012-03-26 15:19:26 51°13.664 2°55.881 8.9031 1.615005 14.280286 -2.458615
2012-03-26 15:20:26 51°13.643 2°55.969 9.0203 1.613767 14.252101 -2.458615
2012-03-26 15:21:26 51°13.635 2°56.013 9.0944 1.610982 14.207688 -2.458615
2012-03-26 15:22:26 51°13.635 2°56.018 9.2177 1.615417 14.236895 -2.458615
2012-03-26 15:23:26 51°13.636 2°56.018 9.2913 1.618098 14.24892 -2.458615
2012-03-26 15:24:26 51°13.635 2°56.018 9.3661 1.619439 14.248481 -2.458615
2012-03-26 15:25:26 51°13.635 2°56.018 9.4106 1.628205 14.319351 -2.458615
2012-03-26 15:26:26 51°13.636 2°56.017 9.4876 1.626142 14.288579 -2.458615
2012-03-26 15:27:26 51°13.636 2°56.018 9.6055 1.635321 14.365122 -2.458615
2012-03-26 15:28:26 51°13.636 2°56.018 9.6551 1.635424 14.354641 -2.458615